Time;durP1;ratioP1;P1;durP2;ratioP2;P2;SDS_P1;SDS_P2;PMS_P1;PMS_P2;Temp;Humidity;BMP_temperature;BMP_pressure;BME280_temperature;BME280_humidity;BME280_pressure;Samples;Min_cycle;Max_cycle;Signal;HPM_P1;HPM_P2
2021/11/05 00:00:25;;;;;;;12.03;8.40;;;;;;;2.42;100.00;101330.47;2089275;28;20040;-67
2021/11/05 00:01:25;;;;;;;11.75;7.90;;;;;;;2.38;100.00;101323.63;2089419;28;20029;-67
2021/11/05 00:02:29;;;;;;;11.43;7.07;;;;;;;2.39;100.00;101328.78;2089387;28;20097;-68
2021/11/05 00:03:29;;;;;;;11.48;8.15;;;;;;;2.43;100.00;101327.91;2089408;28;20017;-66
2021/11/05 00:04:30;;;;;;;19.17;8.23;;;;;;;2.41;100.00;101333.94;2089899;28;20047;-68
2021/11/05 00:05:31;;;;;;;15.03;9.17;;;;;;;2.39;100.00;101325.34;2089958;28;20120;-67
2021/11/05 00:06:31;;;;;;;12.10;7.97;;;;;;;2.35;100.00;101328.75;2089922;28;20033;-67
2021/11/05 00:07:32;;;;;;;10.63;7.23;;;;;;;2.36;100.00;101330.50;2089259;28;20493;-67
2021/11/05 00:08:32;;;;;;;11.23;7.27;;;;;;;2.31;100.00;101323.63;2090869;28;20024;-67
2021/11/05 00:09:33;;;;;;;11.70;7.97;;;;;;;2.31;100.00;101326.22;2090762;28;20036;-67
2021/11/05 00:10:38;;;;;;;14.27;8.25;;;;;;;2.30;100.00;101331.34;2090959;28;20063;-67
2021/11/05 00:11:39;;;;;;;13.23;7.80;;;;;;;2.33;100.00;101330.50;2091456;28;20474;-67
2021/11/05 00:12:39;;;;;;;13.77;7.63;;;;;;;2.37;100.00;101332.22;2091461;28;20113;-67
2021/11/05 00:13:39;;;;;;;15.37;8.70;;;;;;;2.36;100.00;101335.66;2091507;28;20027;-66
2021/11/05 00:14:41;;;;;;;12.83;7.13;;;;;;;2.32;100.00;101334.78;2090751;28;20020;-67
2021/11/05 00:15:42;;;;;;;9.88;6.78;;;;;;;2.29;100.00;101327.91;2082676;28;20075;-67
2021/11/05 00:16:42;;;;;;;12.40;8.30;;;;;;;2.34;100.00;101337.34;2090833;28;20031;-67
2021/11/05 00:17:43;;;;;;;9.83;7.30;;;;;;;2.34;100.00;101335.66;2091454;28;20287;-67
2021/11/05 00:18:43;;;;;;;15.38;7.50;;;;;;;2.38;100.00;101339.94;2091438;28;20013;-67
2021/11/05 00:19:43;;;;;;;13.97;8.37;;;;;;;2.40;100.00;101339.94;2090689;28;20039;-67
2021/11/05 00:20:44;;;;;;;18.33;7.57;;;;;;;2.42;100.00;101333.94;2090810;28;20457;-67
2021/11/05 00:21:44;;;;;;;12.67;7.50;;;;;;;2.43;100.00;101337.38;2091362;28;20044;-67
2021/11/05 00:22:44;;;;;;;10.90;7.70;;;;;;;2.42;100.00;101338.22;2091287;28;20163;-67
2021/11/05 00:23:44;;;;;;;12.00;7.67;;;;;;;2.41;100.00;101339.06;2090684;28;20020;-67
2021/11/05 00:24:45;;;;;;;14.97;8.93;;;;;;;2.39;100.00;101336.50;2090793;28;20436;-68
2021/11/05 00:25:45;;;;;;;14.20;7.67;;;;;;;2.42;100.00;101333.06;2090642;28;20449;-67
2021/11/05 00:26:45;;;;;;;12.40;6.83;;;;;;;2.44;100.00;101349.38;2090685;28;20032;-68
2021/11/05 00:27:46;;;;;;;11.23;6.93;;;;;;;2.47;100.00;101344.25;2091327;28;20078;-68
2021/11/05 00:28:46;;;;;;;12.77;7.30;;;;;;;2.40;100.00;101345.09;2091237;28;20477;-66
2021/11/05 00:29:46;;;;;;;13.30;8.27;;;;;;;2.39;100.00;101349.38;2091308;28;20355;-67
2021/11/05 00:30:47;;;;;;;10.70;7.57;;;;;;;2.43;100.00;101347.69;2091332;28;20024;-66
2021/11/05 00:31:47;;;;;;;12.50;6.93;;;;;;;2.50;100.00;101357.09;2090646;28;20028;-66
2021/11/05 00:32:47;;;;;;;12.50;7.57;;;;;;;2.47;100.00;101353.69;2090671;28;20021;-66
2021/11/05 00:33:48;;;;;;;14.40;7.90;;;;;;;2.52;100.00;101357.97;2091307;28;20017;-66
2021/11/05 00:34:48;;;;;;;12.10;7.77;;;;;;;2.64;100.00;101354.50;2091264;28;20042;-66
2021/11/05 00:35:49;;;;;;;13.03;7.57;;;;;;;2.63;100.00;101360.53;2091279;28;20032;-66
2021/11/05 00:36:49;;;;;;;12.55;7.13;;;;;;;2.61;100.00;101359.69;2091250;28;20029;-66
2021/11/05 00:37:49;;;;;;;11.37;7.23;;;;;;;2.63;100.00;101363.09;2091274;28;20029;-66
2021/11/05 00:38:50;;;;;;;10.10;7.17;;;;;;;2.61;100.00;101357.13;2091217;28;20029;-66
2021/11/05 00:39:50;;;;;;;11.17;6.93;;;;;;;2.64;100.00;101361.41;2091315;28;20063;-66
2021/11/05 00:40:51;;;;;;;12.48;7.18;;;;;;;2.68;100.00;101363.13;2090491;28;20143;-66
2021/11/05 00:41:51;;;;;;;12.23;6.87;;;;;;;2.66;100.00;101362.25;2090669;28;20475;-66
2021/11/05 00:42:51;;;;;;;11.20;7.40;;;;;;;2.64;100.00;101358.81;2091205;28;20027;-65
2021/11/05 00:43:51;;;;;;;12.87;7.70;;;;;;;2.68;100.00;101366.56;2090529;28;20021;-68
2021/11/05 00:44:52;;;;;;;9.00;6.70;;;;;;;2.74;100.00;101368.25;2090630;28;20041;-66
2021/11/05 00:45:52;;;;;;;10.75;6.90;;;;;;;2.74;100.00;101368.25;2091245;28;20051;-66
2021/11/05 00:46:53;;;;;;;12.23;7.20;;;;;;;2.68;100.00;101369.13;2091110;28;20021;-65
2021/11/05 00:47:53;;;;;;;11.10;6.30;;;;;;;2.68;100.00;101368.28;2091423;28;20017;-67
2021/11/05 00:48:53;;;;;;;13.77;8.17;;;;;;;2.71;100.00;101368.28;2091233;28;20510;-66
2021/11/05 00:49:53;;;;;;;8.80;6.53;;;;;;;2.69;100.00;101364.81;2091111;28;20427;-66
2021/11/05 00:50:54;;;;;;;9.47;6.13;;;;;;;2.68;100.00;101373.44;2091217;28;20133;-66
2021/11/05 00:51:54;;;;;;;8.95;6.03;;;;;;;2.74;100.00;101370.81;2090457;28;20039;-65
2021/11/05 00:52:55;;;;;;;9.63;6.67;;;;;;;2.85;100.00;101375.13;2082091;28;20041;-66
2021/11/05 00:53:55;;;;;;;11.53;6.83;;;;;;;2.83;100.00;101378.56;2090561;28;20448;-66
2021/11/05 00:54:55;;;;;;;12.07;6.93;;;;;;;2.81;100.00;101380.25;2091078;28;20505;-66
2021/11/05 00:55:55;;;;;;;13.43;6.40;;;;;;;2.86;100.00;101377.69;2091186;28;20028;-66
2021/11/05 00:56:56;;;;;;;10.33;6.27;;;;;;;2.83;100.00;101378.56;2091136;28;20534;-66
2021/11/05 00:57:56;;;;;;;11.97;6.47;;;;;;;2.83;100.00;101378.56;2091096;28;20025;-65
2021/11/05 00:58:56;;;;;;;16.47;7.43;;;;;;;2.82;100.00;101376.84;2091143;28;20017;-66
2021/11/05 00:59:57;;;;;;;9.40;6.30;;;;;;;2.81;100.00;101379.44;2091085;28;20096;-67
2021/11/05 01:00:57;;;;;;;10.13;6.23;;;;;;;2.82;100.00;101381.13;2091072;28;20143;-67
2021/11/05 01:01:57;;;;;;;8.87;6.87;;;;;;;2.92;100.00;101382.84;2090995;28;20099;-67
2021/11/05 01:02:57;;;;;;;10.27;6.40;;;;;;;2.97;100.00;101375.09;2091037;28;20020;-65
2021/11/05 01:03:58;;;;;;;9.77;6.83;;;;;;;2.94;100.00;101381.13;2090369;28;20028;-66
2021/11/05 01:04:58;;;;;;;13.10;6.37;;;;;;;2.90;100.00;101381.97;2090375;28;20029;-66
2021/11/05 01:05:58;;;;;;;8.43;5.63;;;;;;;2.88;100.00;101380.28;2091061;28;20454;-65
2021/11/05 01:06:59;;;;;;;11.77;6.37;;;;;;;2.91;100.00;101382.84;2090979;28;20115;-65
2021/11/05 01:08:00;;;;;;;8.13;5.40;;;;;;;3.02;100.00;101387.97;2091082;28;20028;-66
2021/11/05 01:09:02;;;;;;;9.60;5.45;;;;;;;3.06;100.00;101387.97;2090991;28;20025;-65
2021/11/05 01:10:04;;;;;;;9.27;5.57;;;;;;;3.04;100.00;101386.25;2090936;28;20043;-66
2021/11/05 01:11:04;;;;;;;11.80;5.75;;;;;;;3.04;100.00;101392.28;2090973;28;20091;-66
2021/11/05 01:12:05;;;;;;;11.63;5.70;;;;;;;3.07;100.00;101392.28;2091006;28;20029;-66
2021/11/05 01:13:06;;;;;;;6.95;5.88;;;;;;;3.03;100.00;101394.84;2090979;28;20021;-66
2021/11/05 01:14:07;;;;;;;10.43;5.68;;;;;;;3.04;100.00;101396.56;2090914;28;20029;-66
2021/11/05 01:15:09;;;;;;;9.25;5.07;;;;;;;3.02;100.00;101390.56;2090322;28;20025;-66
2021/11/05 01:16:10;;;;;;;11.13;6.47;;;;;;;3.02;100.00;101399.16;2090236;28;20071;-66
2021/11/05 01:17:10;;;;;;;7.70;5.25;;;;;;;3.01;100.00;101392.28;2090266;28;20021;-66
2021/11/05 01:18:10;;;;;;;7.10;5.00;;;;;;;2.98;100.00;101397.47;2090998;28;20033;-66
2021/11/05 01:19:11;;;;;;;9.17;5.53;;;;;;;2.98;100.00;101402.63;2090537;28;20041;-66
2021/11/05 01:20:15;;;;;;;8.43;4.63;;;;;;;2.94;100.00;101403.44;2089707;28;20039;-66
2021/11/05 01:21:16;;;;;;;8.45;4.88;;;;;;;2.96;100.00;101401.75;2090368;28;20540;-66
2021/11/05 01:22:17;;;;;;;17.60;7.95;;;;;;;2.97;100.00;101403.44;2090757;28;20027;-66
2021/11/05 01:23:19;;;;;;;8.27;5.55;;;;;;;2.96;100.00;101409.47;2090947;28;20475;-66
2021/11/05 01:24:20;;;;;;;9.68;5.22;;;;;;;2.95;100.00;101407.78;2090896;28;20021;-66
2021/11/05 01:25:20;;;;;;;;;;;;;;;3.02;100.00;101408.63;2090647;28;20043;-66
2021/11/05 01:26:21;;;;;;;7.85;4.43;;;;;;;3.12;100.00;101409.44;2090203;28;19948;-66
2021/11/05 01:27:21;;;;;;;6.38;3.92;;;;;;;3.14;100.00;101408.56;2090912;28;20386;-65
2021/11/05 01:28:21;;;;;;;7.97;4.43;;;;;;;3.16;100.00;101413.75;2090823;28;20025;-66
2021/11/05 01:29:22;;;;;;;8.90;4.73;;;;;;;3.10;100.00;101409.44;2090158;28;20016;-66
2021/11/05 01:30:22;;;;;;;8.93;4.67;;;;;;;3.12;100.00;101409.44;2090281;28;20052;-66
2021/11/05 01:31:23;;;;;;;7.93;5.07;;;;;;;3.12;100.00;101414.59;2090817;28;20101;-66
2021/11/05 01:32:26;;;;;;;8.40;5.00;;;;;;;3.08;100.00;101414.59;2090891;28;20356;-66
2021/11/05 01:33:26;;;;;;;9.18;4.90;;;;;;;3.13;100.00;101418.91;2090769;28;20063;-66
2021/11/05 01:34:27;;;;;;;7.82;5.10;;;;;;;3.12;100.00;101412.91;2090876;28;20032;-67
2021/11/05 01:35:28;;;;;;;11.20;4.88;;;;;;;3.13;100.00;101414.59;2090091;28;20036;-67
2021/11/05 01:36:28;;;;;;;10.20;5.47;;;;;;;3.05;100.00;101419.75;2090219;28;20534;-66
2021/11/05 01:37:28;;;;;;;8.23;4.20;;;;;;;3.06;100.00;101415.47;2090819;28;20383;-66
2021/11/05 01:38:29;;;;;;;7.67;4.83;;;;;;;3.03;100.00;101421.50;2090133;28;20067;-66
2021/11/05 01:39:29;;;;;;;7.30;5.60;;;;;;;2.99;100.00;101424.09;2090228;28;20452;-66
2021/11/05 01:40:29;;;;;;;6.97;5.13;;;;;;;2.94;100.00;101426.66;2090727;28;20031;-66
2021/11/05 01:41:30;;;;;;;8.38;5.00;;;;;;;2.91;100.00;101426.69;2090718;28;20028;-66
2021/11/05 01:42:33;;;;;;;6.80;4.20;;;;;;;2.85;100.00;101426.69;2090735;28;20052;-66
2021/11/05 01:43:34;;;;;;;9.35;4.60;;;;;;;2.87;100.00;101424.97;2090669;28;20029;-66
2021/11/05 01:44:35;;;;;;;9.40;4.75;;;;;;;2.82;100.00;101428.41;2090758;28;20032;-66
2021/11/05 01:45:35;;;;;;;7.18;4.47;;;;;;;2.88;100.00;101429.25;2090032;28;20029;-66
2021/11/05 01:46:41;;;;;;;9.15;4.75;;;;;;;2.91;100.00;101426.69;2090096;28;20019;-66
2021/11/05 01:47:41;;;;;;;6.75;4.38;;;;;;;2.87;100.00;101432.69;2090698;28;20017;-66
2021/11/05 01:48:42;;;;;;;8.43;4.75;;;;;;;2.88;100.00;101427.56;2090681;28;20048;-66
2021/11/05 01:49:42;;;;;;;7.83;4.83;;;;;;;2.88;100.00;101431.84;2090773;28;20019;-66
2021/11/05 01:50:43;;;;;;;9.97;4.77;;;;;;;2.91;100.00;101435.25;2090690;28;20485;-66
2021/11/05 01:51:45;;;;;;;6.60;4.25;;;;;;;2.95;100.00;101430.97;2090643;28;20058;-66
2021/11/05 01:52:45;;;;;;;6.15;4.03;;;;;;;3.07;100.00;101433.53;2090001;28;20067;-66
2021/11/05 01:53:46;;;;;;;6.67;3.87;;;;;;;3.13;100.00;101430.09;2090016;28;20028;-65
2021/11/05 01:54:48;;;;;;;;;;;;;;;3.15;100.00;101435.25;2091104;28;20526;-65
2021/11/05 01:55:48;;;;;;;7.28;4.20;;;;;;;3.13;100.00;101427.50;2089970;28;20305;-65
2021/11/05 01:56:50;;;;;;;7.83;3.80;;;;;;;3.11;100.00;101430.94;2090038;28;20059;-66
2021/11/05 01:57:51;;;;;;;7.75;4.10;;;;;;;3.08;100.00;101435.25;2090091;28;20020;-66
2021/11/05 01:58:51;;;;;;;5.35;3.88;;;;;;;3.11;100.00;101438.69;2090020;28;20098;-66
2021/11/05 01:59:52;;;;;;;9.33;4.23;;;;;;;3.15;100.00;101436.09;2090014;28;20119;-66
2021/11/05 02:00:53;;;;;;;6.20;4.35;;;;;;;3.11;100.00;101444.69;2090591;28;20021;-66
2021/11/05 02:01:55;;;;;;;9.07;4.07;;;;;;;3.08;100.00;101440.41;2090568;28;20027;-67
2021/11/05 02:02:56;;;;;;;5.95;3.53;;;;;;;3.04;100.00;101440.41;2090429;28;20280;-67
2021/11/05 02:03:56;;;;;;;6.75;4.05;;;;;;;3.00;100.00;101442.13;2090576;28;20064;-67
2021/11/05 02:04:56;;;;;;;4.90;3.70;;;;;;;2.94;100.00;101442.13;2090579;28;20033;-66
2021/11/05 02:06:00;;;;;;;8.13;4.10;;;;;;;2.90;100.00;101445.56;2090489;28;20036;-66
2021/11/05 02:07:00;;;;;;;8.80;4.25;;;;;;;2.79;100.00;101448.16;2090525;28;20025;-66
2021/11/05 02:08:02;;;;;;;7.15;3.88;;;;;;;2.83;100.00;101444.72;2090578;28;20473;-66
2021/11/05 02:09:02;;;;;;;7.40;3.85;;;;;;;2.85;100.00;101447.31;2090516;28;20029;-67
2021/11/05 02:10:06;;;;;;;7.40;4.03;;;;;;;2.78;100.00;101456.75;2090509;28;20094;-67
2021/11/05 02:11:06;;;;;;;5.80;3.67;;;;;;;2.80;100.00;101448.16;2090554;28;20021;-65
2021/11/05 02:12:07;;;;;;;5.93;4.13;;;;;;;2.81;100.00;101452.44;2090484;28;20572;-65
2021/11/05 02:13:12;;;;;;;7.13;3.65;;;;;;;2.75;100.00;101451.59;2089903;28;20021;-66
2021/11/05 02:14:15;;;;;;;6.07;4.15;;;;;;;2.73;100.00;101448.19;2090038;28;20458;-66
2021/11/05 02:15:17;;;;;;;6.45;3.35;;;;;;;2.72;100.00;101452.47;2090501;28;20025;-66
2021/11/05 02:16:18;;;;;;;4.95;3.58;;;;;;;2.69;100.00;101452.44;2090484;28;20130;-66
2021/11/05 02:17:19;;;;;;;6.80;3.83;;;;;;;2.74;100.00;101450.72;2090463;28;20371;-67
2021/11/05 02:18:19;;;;;;;8.80;3.17;;;;;;;2.74;100.00;101455.88;2090333;28;20074;-66
2021/11/05 02:19:22;;;;;;;8.03;4.37;;;;;;;2.67;100.00;101456.78;2090459;28;20056;-66
2021/11/05 02:20:25;;;;;;;8.30;4.47;;;;;;;2.63;100.00;101452.47;2089704;28;20585;-65
2021/11/05 02:21:39;;;;;;;6.15;3.35;;;;;;;2.60;100.00;101455.03;2089825;28;20415;-66
2021/11/05 02:22:40;;;;;;;6.90;3.35;;;;;;;2.61;100.00;101456.75;2090362;28;20060;-66
2021/11/05 02:23:41;;;;;;;6.80;3.42;;;;;;;2.61;100.00;101455.03;2090371;28;20047;-67
2021/11/05 02:24:41;;;;;;;7.80;3.97;;;;;;;2.54;100.00;101464.47;2090402;28;20013;-65
2021/11/05 02:25:42;;;;;;;5.93;3.20;;;;;;;2.54;100.00;101466.19;2090400;28;20033;-65
2021/11/05 02:26:44;;;;;;;6.33;3.60;;;;;;;2.52;100.00;101463.63;2090353;28;20067;-65
2021/11/05 02:27:44;;;;;;;5.63;3.38;;;;;;;2.50;100.00;101462.75;2090359;28;20081;-65
2021/11/05 02:28:44;;;;;;;9.50;3.57;;;;;;;2.57;100.00;101469.63;2090414;28;20428;-67
2021/11/05 02:29:45;;;;;;;8.10;3.83;;;;;;;2.52;100.00;101470.47;2089723;28;20017;-66
2021/11/05 02:30:45;;;;;;;5.53;3.20;;;;;;;2.49;100.00;101471.34;2089553;28;20012;-66
2021/11/05 02:31:46;;;;;;;8.07;4.10;;;;;;;2.46;100.00;101471.31;2089757;28;20379;-66
2021/11/05 02:32:48;;;;;;;4.88;3.30;;;;;;;2.47;100.00;101467.91;2089771;28;20017;-66
2021/11/05 02:33:48;;;;;;;5.72;3.45;;;;;;;2.43;100.00;101481.66;2090348;28;20052;-66
2021/11/05 02:34:48;;;;;;;6.83;3.33;;;;;;;2.48;100.00;101474.78;2090363;28;20032;-66
2021/11/05 02:35:49;;;;;;;6.53;3.90;;;;;;;2.41;100.00;101479.06;2090396;28;20029;-66
2021/11/05 02:36:49;;;;;;;5.27;3.20;;;;;;;2.43;100.00;101477.34;2090336;28;20023;-65
2021/11/05 02:37:50;;;;;;;5.47;3.20;;;;;;;2.41;100.00;101478.19;2089660;28;20094;-66
2021/11/05 02:38:50;;;;;;;6.00;3.97;;;;;;;2.34;100.00;101482.47;2089803;28;20283;-67
2021/11/05 02:39:51;;;;;;;8.05;3.60;;;;;;;2.31;100.00;101475.63;2090313;28;20029;-66
2021/11/05 02:40:52;;;;;;;7.20;3.50;;;;;;;2.38;100.00;101478.19;2089617;28;20070;-66
2021/11/05 02:41:53;;;;;;;5.25;3.50;;;;;;;2.38;100.00;101478.19;2081407;28;20068;-66
2021/11/05 02:42:54;;;;;;;7.03;3.25;;;;;;;2.36;100.00;101477.34;2089605;28;20021;-66
2021/11/05 02:43:54;;;;;;;5.40;2.87;;;;;;;2.35;100.00;101483.31;2090325;28;20112;-66
2021/11/05 02:44:55;;;;;;;6.20;3.63;;;;;;;2.31;100.00;101483.34;2089625;28;20040;-66
2021/11/05 02:45:56;;;;;;;4.40;3.72;;;;;;;2.27;100.00;101486.75;2089705;28;20102;-66
2021/11/05 02:46:56;;;;;;;7.60;3.65;;;;;;;2.31;100.00;101485.03;2090151;28;20108;-67
2021/11/05 02:47:57;;;;;;;7.17;3.20;;;;;;;2.51;100.00;101482.53;2090313;28;20020;-66
2021/11/05 02:48:58;;;;;;;5.83;3.60;;;;;;;2.56;100.00;101493.69;2089681;28;20032;-65
2021/11/05 02:50:02;;;;;;;6.35;3.80;;;;;;;2.62;100.00;101486.81;2089636;28;20297;-65
2021/11/05 02:51:03;;;;;;;9.10;3.63;;;;;;;2.54;100.00;101492.81;2090300;28;20029;-66
2021/11/05 02:52:04;;;;;;;6.03;3.35;;;;;;;2.57;100.00;101490.25;2090294;28;20025;-66
2021/11/05 02:53:04;;;;;;;7.00;3.30;;;;;;;2.59;100.00;101497.13;2090268;28;20044;-67
2021/11/05 02:54:06;;;;;;;5.33;3.20;;;;;;;2.57;100.00;101499.72;2090306;28;20033;-66
2021/11/05 02:55:08;;;;;;;4.32;2.63;;;;;;;2.59;100.00;101492.81;2090286;28;20028;-67
2021/11/05 02:56:08;;;;;;;5.68;3.30;;;;;;;2.59;100.00;101497.13;2089681;28;20040;-66
2021/11/05 02:57:09;;;;;;;6.43;2.90;;;;;;;2.64;100.00;101498.00;2089841;28;20426;-66
2021/11/05 02:58:09;;;;;;;8.02;3.47;;;;;;;2.64;100.00;101500.56;2089666;28;20027;-65
2021/11/05 02:59:10;;;;;;;7.60;3.33;;;;;;;2.59;100.00;101503.13;2089795;28;20067;-64
2021/11/05 03:00:11;;;;;;;6.00;3.03;;;;;;;2.61;100.00;101505.72;2090262;28;20025;-66
2021/11/05 03:01:12;;;;;;;5.75;3.15;;;;;;;2.64;100.00;101500.56;2090172;28;20017;-66
2021/11/05 03:02:12;;;;;;;6.20;2.87;;;;;;;2.64;100.00;101501.41;2090198;28;20390;-66
2021/11/05 03:03:13;;;;;;;5.50;3.27;;;;;;;2.70;100.00;101508.28;2090171;28;20032;-66
2021/11/05 03:04:15;;;;;;;6.97;2.92;;;;;;;2.74;100.00;101502.28;2090192;28;20470;-66
2021/11/05 03:05:15;;;;;;;7.55;3.40;;;;;;;2.72;100.00;101513.47;2090199;28;20032;-66
2021/11/05 03:06:16;;;;;;;4.87;3.13;;;;;;;2.68;100.00;101510.91;2090101;28;20474;-66
2021/11/05 03:07:16;;;;;;;5.90;2.90;;;;;;;2.59;100.00;101512.59;2090103;28;20029;-66
2021/11/05 03:08:16;;;;;;;6.27;3.27;;;;;;;2.63;100.00;101514.31;2089535;28;20028;-66
2021/11/05 03:09:18;;;;;;;6.23;3.30;;;;;;;2.63;100.00;101514.31;2089574;28;20102;-66
2021/11/05 03:10:18;;;;;;;5.50;2.58;;;;;;;2.61;100.00;101518.59;2090190;28;20056;-66
2021/11/05 03:11:18;;;;;;;4.70;2.77;;;;;;;2.62;100.00;101517.75;2089561;28;20025;-66
2021/11/05 03:12:19;;;;;;;6.83;2.53;;;;;;;2.65;100.00;101525.47;2089526;28;20458;-66
2021/11/05 03:13:19;;;;;;;5.30;3.13;;;;;;;2.67;100.00;101521.19;2089561;28;20056;-66
2021/11/05 03:14:19;;;;;;;6.60;3.10;;;;;;;2.73;100.00;101518.63;2089590;28;20437;-66
2021/11/05 03:15:19;;;;;;;4.50;2.80;;;;;;;2.76;100.00;101531.50;2090216;28;20036;-66
2021/11/05 03:16:20;;;;;;;6.23;2.77;;;;;;;2.72;100.00;101524.63;2090098;28;20132;-66
2021/11/05 03:17:20;;;;;;;7.13;2.77;;;;;;;2.71;100.00;101528.09;2090144;28;20056;-66
2021/11/05 03:18:21;;;;;;;4.60;2.57;;;;;;;2.67;100.00;101529.78;2090187;28;20028;-66
2021/11/05 03:19:22;;;;;;;5.53;3.00;;;;;;;2.65;100.00;101533.22;2090088;28;20036;-66
2021/11/05 03:20:23;;;;;;;6.15;3.15;;;;;;;2.61;100.00;101537.50;2090121;28;20021;-66
2021/11/05 03:21:23;;;;;;;4.43;2.65;;;;;;;2.59;100.00;101534.06;2090088;28;20035;-68
2021/11/05 03:22:23;;;;;;;6.03;2.43;;;;;;;2.56;100.00;101539.19;2089951;28;20131;-68
2021/11/05 03:23:24;;;;;;;7.57;2.80;;;;;;;2.55;100.00;101537.50;2089466;28;20578;-66
2021/11/05 03:24:24;;;;;;;5.87;3.17;;;;;;;2.52;100.00;101543.50;2089498;28;20025;-65
2021/11/05 03:25:25;;;;;;;4.65;2.88;;;;;;;2.44;100.00;101542.63;2090087;28;20060;-66
2021/11/05 03:26:25;;;;;;;4.20;2.73;;;;;;;2.40;100.00;101540.91;2090047;28;20033;-66
2021/11/05 03:27:27;;;;;;;7.47;2.85;;;;;;;2.38;100.00;101543.47;2089432;28;20060;-66
2021/11/05 03:28:27;;;;;;;6.15;3.03;;;;;;;2.41;100.00;101540.03;2089457;28;20441;-66
2021/11/05 03:29:27;;;;;;;6.93;2.87;;;;;;;2.36;100.00;101542.59;2090118;28;20025;-66
2021/11/05 03:30:28;;;;;;;5.60;2.80;;;;;;;2.30;100.00;101542.59;2090094;28;20025;-65
2021/11/05 03:31:28;;;;;;;8.60;3.00;;;;;;;2.23;100.00;101546.84;2089996;28;20033;-66
2021/11/05 03:32:28;;;;;;;5.93;3.00;;;;;;;2.18;100.00;101543.38;2089413;28;20029;-66
2021/11/05 03:33:29;;;;;;;8.20;3.47;;;;;;;2.14;100.00;101546.81;2089470;28;20029;-66
2021/11/05 03:34:29;;;;;;;5.80;2.87;;;;;;;2.15;100.00;101548.50;2090072;28;20070;-66
2021/11/05 03:35:29;;;;;;;5.33;3.43;;;;;;;2.13;100.00;101547.66;2090125;28;20493;-66
2021/11/05 03:36:30;;;;;;;7.10;2.97;;;;;;;2.11;100.00;101544.22;2089986;28;20041;-66
2021/11/05 03:37:30;;;;;;;4.37;2.87;;;;;;;2.06;100.00;101547.63;2090072;28;20040;-67
2021/11/05 03:38:30;;;;;;;5.25;2.90;;;;;;;2.02;100.00;101553.63;2090112;28;20071;-66
2021/11/05 03:39:31;;;;;;;5.93;3.00;;;;;;;2.02;100.00;101558.75;2090080;28;20046;-66
2021/11/05 03:40:33;;;;;;;7.40;3.22;;;;;;;2.03;100.00;101560.50;2090176;28;20025;-66
2021/11/05 03:41:34;;;;;;;6.88;3.30;;;;;;;2.03;100.00;101557.94;2090052;28;20025;-67
2021/11/05 03:42:34;;;;;;;5.95;3.45;;;;;;;1.98;100.00;101562.19;2089401;28;20020;-66
2021/11/05 03:43:34;;;;;;;5.77;4.20;;;;;;;1.95;100.00;101564.72;2090987;28;20032;-66
2021/11/05 03:44:35;;;;;;;4.30;2.97;;;;;;;1.95;100.00;101561.31;2091622;28;20060;-66
2021/11/05 03:45:35;;;;;;;6.53;3.60;;;;;;;1.89;100.00;101572.44;2091630;28;20024;-66
2021/11/05 03:46:35;;;;;;;8.03;4.00;;;;;;;1.85;100.00;101568.97;2091575;28;20067;-66
2021/11/05 03:47:36;;;;;;;6.00;3.63;;;;;;;1.85;100.00;101574.13;2090911;28;20054;-66
2021/11/05 03:48:38;;;;;;;4.87;3.10;;;;;;;1.86;100.00;101572.41;2091000;28;20041;-66
2021/11/05 03:49:39;;;;;;;5.05;3.47;;;;;;;1.86;100.00;101564.69;2091706;28;20021;-66
2021/11/05 03:50:39;;;;;;;8.33;4.00;;;;;;;1.82;100.00;101575.81;2091672;28;20424;-66
2021/11/05 03:51:41;;;;;;;5.23;3.87;;;;;;;1.78;100.00;101570.66;2091628;28;20526;-67
2021/11/05 03:52:43;;;;;;;7.65;3.75;;;;;;;1.75;100.00;101570.63;2091537;28;20036;-66
2021/11/05 03:53:43;;;;;;;9.43;3.75;;;;;;;1.73;100.00;101572.34;2090966;28;20025;-66
2021/11/05 03:54:43;;;;;;;5.57;3.13;;;;;;;1.70;100.00;101581.75;2090968;28;20547;-67
2021/11/05 03:55:44;;;;;;;5.87;3.60;;;;;;;1.67;100.00;101574.88;2091036;28;20035;-69
2021/11/05 03:56:44;;;;;;;5.90;3.22;;;;;;;1.64;100.00;101582.59;2091622;28;20163;-67
2021/11/05 03:57:45;;;;;;;6.37;3.13;;;;;;;1.65;100.00;101580.00;2091561;28;20028;-67
2021/11/05 03:58:45;;;;;;;6.90;3.43;;;;;;;1.63;100.00;101581.72;2090876;28;20024;-66
2021/11/05 03:59:46;;;;;;;4.40;3.40;;;;;;;1.62;100.00;101589.44;2091004;28;20021;-67
2021/11/05 04:00:46;;;;;;;5.65;3.45;;;;;;;1.64;100.00;101592.88;2090894;28;20444;-66
2021/11/05 04:01:46;;;;;;;10.07;4.30;;;;;;;1.62;100.00;101592.00;2091023;28;20048;-66
2021/11/05 04:02:47;;;;;;;6.33;3.60;;;;;;;1.65;100.00;101594.59;2091512;28;20082;-66
2021/11/05 04:03:48;;;;;;;5.15;3.42;;;;;;;1.67;100.00;101590.31;2091591;28;20099;-66
2021/11/05 04:04:49;;;;;;;7.53;3.75;;;;;;;1.64;100.00;101596.31;2090819;28;20478;-66
2021/11/05 04:05:50;;;;;;;5.25;3.90;;;;;;;1.60;100.00;101601.41;2082579;28;20051;-66
2021/11/05 04:06:50;;;;;;;7.97;3.53;;;;;;;1.56;100.00;101594.50;2090844;28;20079;-66
2021/11/05 04:07:51;;;;;;;5.97;3.20;;;;;;;1.50;100.00;101606.50;2091419;28;20112;-66
2021/11/05 04:08:52;;;;;;;5.80;3.40;;;;;;;1.48;100.00;101605.63;2091540;28;20024;-66
2021/11/05 04:09:52;;;;;;;9.07;3.20;;;;;;;1.48;100.00;101608.22;2091501;28;20075;-66
2021/11/05 04:10:53;;;;;;;6.33;3.40;;;;;;;1.48;100.00;101612.47;2091519;28;20098;-66
2021/11/05 04:11:53;;;;;;;8.90;3.50;;;;;;;1.44;100.00;101616.75;2090819;28;20076;-65
2021/11/05 04:12:54;;;;;;;8.13;3.37;;;;;;;1.44;100.00;101616.75;2090881;28;20033;-66
2021/11/05 04:13:54;;;;;;;12.07;3.70;;;;;;;1.40;100.00;101615.84;2091450;28;20432;-66
2021/11/05 04:14:54;;;;;;;8.90;3.90;;;;;;;1.39;100.00;101615.84;2091499;28;20029;-67
2021/11/05 04:15:55;;;;;;;4.50;3.30;;;;;;;1.38;100.00;101611.53;2091408;28;20110;-66
2021/11/05 04:16:55;;;;;;;5.57;3.63;;;;;;;1.45;100.00;101613.31;2091507;28;20035;-67
2021/11/05 04:17:55;;;;;;;7.77;4.00;;;;;;;1.52;100.00;101615.09;2091405;28;20037;-66
2021/11/05 04:18:55;;;;;;;9.73;3.97;;;;;;;1.51;100.00;101618.50;2090741;28;20032;-66
2021/11/05 04:19:56;;;;;;;5.17;3.50;;;;;;;1.47;100.00;101611.59;2090741;28;20134;-66
2021/11/05 04:20:56;;;;;;;6.80;3.90;;;;;;;1.45;100.00;101615.91;2091355;28;20056;-66
2021/11/05 04:21:56;;;;;;;5.97;3.80;;;;;;;1.44;100.00;101626.16;2091408;28;20052;-66
2021/11/05 04:22:57;;;;;;;6.80;3.63;;;;;;;1.44;100.00;101624.47;2091192;28;20495;-66
2021/11/05 04:23:57;;;;;;;11.80;4.17;;;;;;;1.43;100.00;101633.00;2091380;28;20053;-66
2021/11/05 04:24:57;;;;;;;7.57;3.57;;;;;;;1.43;100.00;101627.88;2091276;28;20028;-67
2021/11/05 04:25:58;;;;;;;7.13;3.93;;;;;;;1.43;100.00;101629.59;2090756;28;20031;-65
2021/11/05 04:26:58;;;;;;;7.93;4.23;;;;;;;1.39;100.00;101638.97;2090705;28;20525;-66
2021/11/05 04:27:59;;;;;;;5.32;3.67;;;;;;;1.36;100.00;101639.81;2091363;28;20085;-66
2021/11/05 04:28:59;;;;;;;6.73;4.00;;;;;;;1.36;100.00;101638.94;2091329;28;20033;-66
2021/11/05 04:29:59;;;;;;;6.03;3.73;;;;;;;1.42;100.00;101644.16;2091325;28;20476;-66
2021/11/05 04:31:01;;;;;;;5.90;3.50;;;;;;;1.43;100.00;101638.16;2091315;28;20017;-66
2021/11/05 04:32:03;;;;;;;5.85;4.00;;;;;;;1.51;100.00;101644.22;2090590;28;20119;-66
2021/11/05 04:33:05;;;;;;;6.57;3.92;;;;;;;1.51;100.00;101648.53;2090601;28;20029;-66
2021/11/05 04:34:05;;;;;;;6.13;3.80;;;;;;;1.49;100.00;101647.63;2090693;28;20035;-65
2021/11/05 04:35:06;;;;;;;5.67;3.87;;;;;;;1.47;100.00;101647.63;2090604;28;20053;-68
2021/11/05 04:36:07;;;;;;;8.55;4.60;;;;;;;1.51;100.00;101651.09;2090659;28;20063;-65
2021/11/05 04:37:08;;;;;;;5.07;3.72;;;;;;;1.52;100.00;101658.84;2090701;28;20386;-65
2021/11/05 04:38:08;;;;;;;4.82;3.58;;;;;;;1.53;100.00;101652.84;2091271;28;20120;-65
2021/11/05 04:39:14;;;;;;;6.17;3.47;;;;;;;1.51;100.00;101659.66;2091266;28;20047;-65
2021/11/05 04:40:14;;;;;;;8.00;4.57;;;;;;;1.48;100.00;101657.09;2091268;28;20052;-65
2021/11/05 04:41:15;;;;;;;6.60;3.87;;;;;;;1.49;100.00;101661.38;2091285;28;20474;-66
2021/11/05 04:42:15;;;;;;;6.73;4.27;;;;;;;1.49;100.00;101660.50;2090605;28;20069;-65